Rechercher aéroport 
image banner adimage banner adimage banner ad
image banner ad

15CA - Stanford University Hospital Center

Situé à Palo Alto, United States

ICAO - 15CA, IATA -

Données fournies par Airmate  

Information générale

Coordonnées: N37°26'7" W122°10'28"
Élévation : 84 feet MSL.
Variation magnétique : 16° East
Voir autres Aéroports à California

Données opérationnelles

Special qualification required
Heure actuelle UTC:
Heure actuelle locale:
Météo à : KPAO - Palo Alto ( 6 km )
METAR: KPAO 251547Z VRB04KT 8SM OVC012 17/13 A2999
Voir NOTAMs / SUP AIP / TFR affectant cet aéroport [VIEW]
Fréquences de communication: [VIEW]

Pistes:

Coordonnées de l'aéroport

Adresse: Palo Alto United States

Vue satellite de 15CA